createdAt,value
2019-02-23T00:01:36.271Z,103650.32
2019-02-23T00:06:45.719Z,103644.13
2019-02-23T00:11:59.212Z,103641.88
2019-02-23T00:17:09.931Z,103641.32
2019-02-23T00:22:19.052Z,103636.46
2019-02-23T00:27:31.880Z,103641.09
2019-02-23T00:32:42.675Z,103646.19
2019-02-23T00:37:56.423Z,103635.55
2019-02-23T00:43:11.820Z,103627.77
2019-02-23T00:48:23.304Z,103632.94
2019-02-23T00:53:38.504Z,103625.82
2019-02-23T00:58:49.401Z,103630.13
2019-02-23T01:04:00.296Z,103633.04
2019-02-23T01:09:13.551Z,103629.41
2019-02-23T01:14:28.777Z,103629.41
2019-02-23T01:19:47.403Z,103632.91
2019-02-23T01:24:54.316Z,103625.27
2019-02-23T01:30:04.339Z,103627.48
2019-02-23T01:35:15.283Z,103617.53
2019-02-23T01:40:28.065Z,103623.41
2019-02-23T01:45:42.740Z,103611.15
2019-02-23T01:50:54.709Z,103621.52
2019-02-23T01:56:06.578Z,103615.27
2019-02-23T02:01:17.418Z,103617.95
2019-02-23T02:06:33.614Z,103621.11
2019-02-23T02:11:43.693Z,103622.03
2019-02-23T02:16:51.469Z,103613.59
2019-02-23T02:22:00.715Z,103618.66
2019-02-23T02:27:10.833Z,103623.88
2019-02-23T02:32:25.302Z,103615.66
2019-02-23T02:37:33.201Z,103607.38
2019-02-23T02:42:40.329Z,103608.02
2019-02-23T02:47:55.784Z,103601.89
2019-02-23T02:53:06.184Z,103605.70
2019-02-23T02:58:16.168Z,103595.09
2019-02-23T03:03:30.360Z,103592.28
2019-02-23T03:08:43.080Z,103597.40
2019-02-23T03:13:53.101Z,103593.30
2019-02-23T03:19:07.881Z,103589.23
2019-02-23T03:24:15.425Z,103589.08
2019-02-23T03:29:29.257Z,103593.75
2019-02-23T03:34:41.006Z,103595.16
2019-02-23T03:39:54.771Z,103596.46
2019-02-23T03:45:05.606Z,103597.11
2019-02-23T03:50:19.369Z,103606.38
2019-02-23T03:55:34.891Z,103609.91
2019-02-23T04:00:45.191Z,103609.91
2019-02-23T04:05:59.726Z,103607.29
2019-02-23T04:11:07.840Z,103614.19
2019-02-23T04:16:20.421Z,103611.52
2019-02-23T04:21:29.965Z,103615.42
2019-02-23T04:26:39.200Z,103609.23
2019-02-23T04:31:49.838Z,103610.36
2019-02-23T04:37:02.628Z,103613.48
2019-02-23T04:42:13.545Z,103615.53
2019-02-23T04:47:21.206Z,103613.60
2019-02-23T04:52:32.784Z,103620.65
2019-02-23T04:57:44.484Z,103621.35
2019-02-23T05:02:53.702Z,103622.86
2019-02-23T05:08:06.862Z,103615.98
2019-02-23T05:13:17.993Z,103616.61
2019-02-23T05:18:33.614Z,103620.31
2019-02-23T05:23:41.180Z,103617.72
2019-02-23T05:28:54.007Z,103618.84
2019-02-23T05:34:04.789Z,103622.13
2019-02-23T05:39:17.691Z,103621.58
2019-02-23T05:44:26.356Z,103624.59
2019-02-23T05:49:38.136Z,103631.09
2019-02-23T05:54:45.482Z,103635.29
2019-02-23T05:59:53.582Z,103640.30
2019-02-23T06:05:04.139Z,103639.95
2019-02-23T06:10:18.728Z,103633.51
2019-02-23T06:15:29.416Z,103636.42
2019-02-23T06:20:40.744Z,103628.16
2019-02-23T06:25:49.646Z,103628.16
2019-02-23T06:31:00.675Z,103631.69
2019-02-23T06:36:09.674Z,103637.63
2019-02-23T06:41:17.719Z,103642.63
2019-02-23T06:46:29.601Z,103646.33
2019-02-23T06:51:45.033Z,103640.31
2019-02-23T06:56:53.731Z,103650.30
2019-02-23T07:02:01.169Z,103652.14
2019-02-23T07:07:12.076Z,103645.95
2019-02-23T07:12:21.101Z,103645.30
2019-02-23T07:17:31.086Z,103647.00
2019-02-23T07:22:45.005Z,103643.45
2019-02-23T07:27:53.438Z,103643.81
2019-02-23T07:33:07.757Z,103643.00
2019-02-23T07:38:15.843Z,103636.27
2019-02-23T07:43:26.822Z,103634.86
2019-02-23T07:48:35.940Z,103640.67
2019-02-23T07:53:48.588Z,103647.69
2019-02-23T07:58:58.066Z,103648.04
2019-02-23T08:04:13.547Z,103644.15
2019-02-23T08:09:24.549Z,103649.66
2019-02-23T08:14:36.191Z,103651.66
2019-02-23T08:19:57.829Z,103651.62
2019-02-23T08:25:06.970Z,103647.75
2019-02-23T08:30:19.283Z,103647.80
2019-02-23T08:35:31.113Z,103649.70
2019-02-23T08:40:39.906Z,103651.54
2019-02-23T08:45:48.009Z,103648.52
2019-02-23T08:50:57.572Z,103639.33
2019-02-23T08:56:04.288Z,103643.99
2019-02-23T09:01:16.906Z,103624.91
2019-02-23T09:06:30.538Z,103627.83
2019-02-23T09:11:43.088Z,103632.17
2019-02-23T09:16:53.929Z,103625.39
2019-02-23T09:22:05.799Z,103630.69
2019-02-23T09:27:17.597Z,103638.40
2019-02-23T09:32:30.190Z,103650.55
2019-02-23T09:37:39.616Z,103650.55
2019-02-23T09:42:51.722Z,103650.47
2019-02-23T09:48:02.664Z,103657.89
2019-02-23T09:53:15.331Z,103653.36
2019-02-23T09:58:21.496Z,103649.83
2019-02-23T10:03:30.450Z,103645.65
2019-02-23T10:08:41.306Z,103636.31
2019-02-23T10:13:55.168Z,103644.05
2019-02-23T10:19:11.406Z,103639.91
2019-02-23T10:24:18.685Z,103628.58
2019-02-23T10:29:27.689Z,103630.16
2019-02-23T10:34:39.334Z,103620.75
2019-02-23T10:39:50.599Z,103623.84
2019-02-23T10:45:05.863Z,103618.84
2019-02-23T10:50:18.568Z,103616.11
2019-02-23T10:55:25.602Z,103611.92
2019-02-23T11:00:37.368Z,103596.17
2019-02-23T11:05:45.381Z,103601.19
2019-02-23T11:10:57.672Z,103593.94
2019-02-23T11:16:06.661Z,103586.19
2019-02-23T11:21:19.179Z,103579.74
2019-02-23T11:26:51.140Z,103582.63
2019-02-23T11:32:00.129Z,103573.22
2019-02-23T11:37:09.702Z,103564.74
2019-02-23T11:42:20.422Z,103557.03
2019-02-23T11:47:28.926Z,103560.37
2019-02-23T11:52:39.614Z,103551.90
2019-02-23T11:57:50.917Z,103539.37
2019-02-23T12:02:58.954Z,103548.21
2019-02-23T12:08:09.228Z,103544.91
2019-02-23T12:13:19.236Z,103538.78
2019-02-23T12:18:31.462Z,103543.27
2019-02-23T12:23:39.685Z,103547.20
2019-02-23T12:28:55.595Z,103532.05
2019-02-23T12:34:03.177Z,103519.73
2019-02-23T12:39:15.816Z,103517.77
2019-02-23T12:44:25.579Z,103525.30
2019-02-23T12:49:35.583Z,103503.24
2019-02-23T12:54:47.405Z,103508.31
2019-02-23T12:59:57.536Z,103496.42
2019-02-23T13:05:03.944Z,103496.66
2019-02-23T13:10:14.378Z,103503.38
2019-02-23T13:15:42.054Z,103497.85
2019-02-23T13:21:20.743Z,103499.07
2019-02-23T13:27:16.575Z,103489.89
2019-02-23T13:32:56.134Z,103477.55
2019-02-23T13:38:24.869Z,103475.72
2019-02-23T13:44:14.420Z,103464.02
2019-02-23T13:50:10.184Z,103464.27
2019-02-23T13:55:45.931Z,103462.17
2019-02-23T14:01:26.668Z,103464.86
2019-02-23T14:07:04.374Z,103460.42
2019-02-23T14:12:54.764Z,103453.75
2019-02-23T14:18:29.838Z,103448.55
2019-02-23T14:24:11.918Z,103445.36
2019-02-23T14:29:57.324Z,103446.64
2019-02-23T14:35:28.593Z,103439.32
2019-02-23T14:41:22.724Z,103432.93
2019-02-23T14:47:05.129Z,103439.89
2019-02-23T14:53:03.630Z,103435.45
2019-02-23T14:58:53.174Z,103430.13
2019-02-23T15:04:21.780Z,103439.64
2019-02-23T15:10:07.382Z,103442.45
2019-02-23T15:15:34.917Z,103434.73
2019-02-23T15:21:17.783Z,103425.20
2019-02-23T15:27:04.363Z,103429.05
2019-02-23T15:32:52.985Z,103432.30
2019-02-23T15:38:46.730Z,103428.22
2019-02-23T15:44:21.591Z,103426.07
2019-02-23T15:49:40.144Z,103421.62
2019-02-23T15:54:49.896Z,103427.28
2019-02-23T16:00:02.627Z,103429.44
2019-02-23T16:05:15.685Z,103425.98
2019-02-23T16:10:29.613Z,103427.23
2019-02-23T16:15:37.983Z,103431.95
2019-02-23T16:20:54.196Z,103427.06
2019-02-23T16:26:06.900Z,103434.30
2019-02-23T16:31:22.427Z,103429.49
2019-02-23T16:36:35.156Z,103423.58
2019-02-23T16:41:45.760Z,103427.97
2019-02-23T16:46:58.791Z,103431.59
2019-02-23T16:52:09.844Z,103428.21
2019-02-23T16:57:25.533Z,103435.31
2019-02-23T17:02:36.223Z,103439.73
2019-02-23T17:07:53.908Z,103442.53
2019-02-23T17:13:04.647Z,103449.45
2019-02-23T17:18:17.128Z,103441.66
2019-02-23T17:23:28.812Z,103451.95
2019-02-23T17:28:40.199Z,103450.73
2019-02-23T17:33:51.464Z,103447.23
2019-02-23T17:39:03.976Z,103451.83
2019-02-23T17:44:15.685Z,103444.95
2019-02-23T17:49:27.374Z,103445.90
2019-02-23T17:54:36.362Z,103444.66
2019-02-23T17:59:46.250Z,103437.31
2019-02-23T18:05:01.740Z,103441.34
2019-02-23T18:10:12.198Z,103448.40
2019-02-23T18:15:23.365Z,103445.39
2019-02-23T18:20:35.182Z,103444.05
2019-02-23T18:25:48.743Z,103439.30
2019-02-23T18:30:59.111Z,103434.11
2019-02-23T18:36:09.026Z,103424.50
2019-02-23T18:41:21.647Z,103426.30
2019-02-23T18:46:31.572Z,103421.93
2019-02-23T18:51:45.060Z,103423.24
2019-02-23T18:56:55.966Z,103433.75
2019-02-23T19:02:08.721Z,103433.30
2019-02-23T19:07:26.470Z,103425.88
2019-02-23T19:12:38.151Z,103433.75
2019-02-23T19:17:49.841Z,103431.09
2019-02-23T19:23:03.369Z,103434.96
2019-02-23T19:28:13.201Z,103440.68
2019-02-23T19:33:22.465Z,103429.71
2019-02-23T19:38:36.038Z,103431.41
2019-02-23T19:43:46.101Z,103430.92
2019-02-23T19:49:01.962Z,103424.31
2019-02-23T19:54:10.518Z,103421.23
2019-02-23T19:59:20.037Z,103420.69
2019-02-23T20:04:31.368Z,103418.09
2019-02-23T20:09:41.958Z,103412.79
2019-02-23T20:14:53.827Z,103419.76
2019-02-23T20:20:07.502Z,103413.57
2019-02-23T20:25:19.591Z,103424.78
2019-02-23T20:30:35.641Z,103418.66
2019-02-23T20:35:49.103Z,103418.59
2019-02-23T20:40:59.514Z,103417.61
2019-02-23T20:46:09.298Z,103425.88
2019-02-23T20:52:29.321Z,103428.00
2019-02-23T20:57:44.199Z,103435.87
2019-02-23T21:02:54.159Z,103447.14
2019-02-23T21:08:01.362Z,103452.73
2019-02-23T21:13:13.500Z,103454.85
2019-02-23T21:18:27.398Z,103452.60
2019-02-23T21:23:40.837Z,103462.16
2019-02-23T21:28:51.109Z,103459.53
2019-02-23T21:34:00.170Z,103460.36
2019-02-23T21:39:11.684Z,103463.32
2019-02-23T21:44:20.783Z,103472.34
2019-02-23T21:49:32.442Z,103468.68
2019-02-23T21:54:45.774Z,103474.61
2019-02-23T21:59:56.672Z,103462.34
2019-02-23T22:05:11.665Z,103472.33
2019-02-23T22:10:13.423Z,103483.87
2019-02-23T22:15:24.164Z,103478.93
2019-02-23T22:20:34.151Z,103475.45
2019-02-23T22:25:46.809Z,103467.19
2019-02-23T22:30:58.471Z,103470.08
2019-02-23T22:36:07.112Z,103466.56
2019-02-23T22:41:14.918Z,103462.48
2019-02-23T22:46:24.138Z,103468.95
2019-02-23T22:51:33.143Z,103463.93
2019-02-23T22:56:47.465Z,103468.68
2019-02-23T23:01:58.281Z,103465.93
2019-02-23T23:07:08.119Z,103477.88
2019-02-23T23:12:20.881Z,103479.08
2019-02-23T23:17:32.804Z,103477.77
2019-02-23T23:22:44.601Z,103472.05
2019-02-23T23:27:54.570Z,103467.23
2019-02-23T23:33:03.594Z,103468.50
2019-02-23T23:38:10.585Z,103468.89
2019-02-23T23:43:21.282Z,103461.75
2019-02-23T23:48:33.127Z,103461.67
2019-02-23T23:53:46.746Z,103458.12
2019-02-23T23:58:55.525Z,103452.75
